createdAt,value
2023-01-30T00:01:02.911Z,16.73
2023-01-30T00:03:29.570Z,17.10
2023-01-30T00:05:56.153Z,15.77
2023-01-30T00:08:22.795Z,16.73
2023-01-30T00:10:49.452Z,16.60
2023-01-30T00:13:16.630Z,15.90
2023-01-30T00:15:43.618Z,16.45
2023-01-30T00:18:10.315Z,16.45
2023-01-30T00:20:37.195Z,16.58
2023-01-30T00:23:04.016Z,16.30
2023-01-30T00:25:33.407Z,15.30
2023-01-30T00:28:01.245Z,15.35
2023-01-30T00:30:28.182Z,15.00
2023-01-30T00:32:56.566Z,14.98
2023-01-30T00:35:28.314Z,13.70
2023-01-30T00:37:58.561Z,14.57
2023-01-30T00:40:29.758Z,14.48
2023-01-30T00:43:14.709Z,13.98
2023-01-30T00:46:03.587Z,13.40
2023-01-30T00:48:33.000Z,13.33
2023-01-30T00:50:59.419Z,14.32
2023-01-30T00:53:25.941Z,12.77
2023-01-30T00:55:53.236Z,13.40
2023-01-30T00:58:20.399Z,12.43
2023-01-30T01:00:46.962Z,13.07
2023-01-30T01:03:13.895Z,13.27
2023-01-30T01:05:40.339Z,12.38
2023-01-30T01:08:07.233Z,12.93
2023-01-30T01:10:33.823Z,12.38
2023-01-30T01:13:00.455Z,13.17
2023-01-30T01:15:27.426Z,13.15
2023-01-30T01:17:54.166Z,14.23
2023-01-30T01:20:22.661Z,14.45
2023-01-30T01:22:53.821Z,12.85
2023-01-30T01:25:20.815Z,13.30
2023-01-30T01:27:47.395Z,12.98
2023-01-30T01:30:14.615Z,11.98
2023-01-30T01:32:41.290Z,11.15
2023-01-30T01:35:08.335Z,12.07
2023-01-30T01:37:34.711Z,10.27
2023-01-30T01:40:19.618Z,10.07
2023-01-30T01:42:46.074Z,9.25
2023-01-30T01:45:25.147Z,10.00
2023-01-30T01:48:05.701Z,8.60
2023-01-30T01:50:42.573Z,8.67
2023-01-30T01:53:12.373Z,9.25
2023-01-30T01:55:41.528Z,8.40
2023-01-30T01:58:11.731Z,7.15
2023-01-30T02:00:38.120Z,6.80
2023-01-30T02:03:12.443Z,6.20
2023-01-30T02:05:43.569Z,6.70
2023-01-30T02:08:21.977Z,6.32
2023-01-30T02:11:03.175Z,7.00
2023-01-30T02:13:30.363Z,5.95
2023-01-30T02:16:02.108Z,5.63
2023-01-30T02:18:30.272Z,5.00
2023-01-30T02:21:15.569Z,5.13
2023-01-30T02:23:57.862Z,4.60
2023-01-30T02:26:36.459Z,4.68
2023-01-30T02:29:05.788Z,4.13
2023-01-30T02:32:07.774Z,4.10
2023-01-30T02:34:41.719Z,3.70
2023-01-30T02:37:18.031Z,4.28
2023-01-30T02:40:26.274Z,4.05
2023-01-30T02:43:13.134Z,4.00
2023-01-30T02:45:56.627Z,4.30
2023-01-30T02:48:29.013Z,3.42
2023-01-30T02:51:01.186Z,4.10
2023-01-30T02:53:34.670Z,4.70
2023-01-30T02:56:01.130Z,4.07
2023-01-30T02:58:36.032Z,4.43
2023-01-30T03:01:32.091Z,4.43
2023-01-30T03:04:27.668Z,4.80
2023-01-30T03:07:00.987Z,4.80
2023-01-30T03:09:36.439Z,4.67
2023-01-30T03:12:09.012Z,4.82
2023-01-30T03:14:45.425Z,5.00
2023-01-30T03:17:14.538Z,4.40
2023-01-30T03:19:42.017Z,4.45
2023-01-30T03:22:08.931Z,4.60
2023-01-30T03:24:35.449Z,4.20
2023-01-30T03:27:12.147Z,4.38
2023-01-30T03:29:40.802Z,4.75
2023-01-30T03:32:07.418Z,4.65
2023-01-30T03:34:34.116Z,4.73
2023-01-30T03:37:00.641Z,3.90
2023-01-30T03:39:27.152Z,4.80
2023-01-30T03:41:54.275Z,3.60
2023-01-30T03:44:21.631Z,3.50
2023-01-30T03:46:48.096Z,3.80
2023-01-30T03:49:14.600Z,3.30
2023-01-30T03:51:40.959Z,3.03
2023-01-30T03:54:07.339Z,3.08
2023-01-30T03:56:33.739Z,2.55
2023-01-30T03:59:00.150Z,2.90
2023-01-30T04:01:26.596Z,3.13
2023-01-30T04:03:52.980Z,3.28
2023-01-30T04:06:19.361Z,3.45
2023-01-30T04:08:45.729Z,3.65
2023-01-30T04:11:12.114Z,2.47
2023-01-30T04:13:38.480Z,3.33
2023-01-30T04:16:19.898Z,3.00
2023-01-30T04:18:46.328Z,3.28
2023-01-30T04:21:13.405Z,2.85
2023-01-30T04:23:39.793Z,2.83
2023-01-30T04:26:06.874Z,2.78
2023-01-30T04:28:33.603Z,2.50
2023-01-30T04:31:00.173Z,3.03
2023-01-30T04:33:26.945Z,3.10
2023-01-30T04:35:58.954Z,2.90
2023-01-30T04:38:27.311Z,2.75
2023-01-30T04:40:55.394Z,2.15
2023-01-30T04:43:23.667Z,2.53
2023-01-30T04:45:51.183Z,2.70
2023-01-30T04:48:19.259Z,2.57
2023-01-30T04:50:48.976Z,2.20
2023-01-30T04:53:16.947Z,2.70
2023-01-30T04:55:43.561Z,2.30
2023-01-30T04:58:10.078Z,3.10
2023-01-30T05:00:36.729Z,2.83
2023-01-30T05:03:03.277Z,3.25
2023-01-30T05:05:29.723Z,2.60
2023-01-30T05:07:56.135Z,2.63
2023-01-30T05:10:22.572Z,2.80
2023-01-30T05:12:48.938Z,2.63
2023-01-30T05:15:15.470Z,3.10
2023-01-30T05:17:43.788Z,2.40
2023-01-30T05:20:13.469Z,2.13
2023-01-30T05:22:39.920Z,2.50
2023-01-30T05:25:07.211Z,2.40
2023-01-30T05:27:33.570Z,1.73
2023-01-30T05:29:59.936Z,2.47
2023-01-30T05:32:27.264Z,1.70
2023-01-30T05:34:53.696Z,2.10
2023-01-30T05:37:20.074Z,2.60
2023-01-30T05:39:46.431Z,2.50
2023-01-30T05:42:12.981Z,1.92
2023-01-30T05:44:39.346Z,2.10
2023-01-30T05:47:05.706Z,2.47
2023-01-30T05:49:32.074Z,1.80
2023-01-30T05:51:58.461Z,2.35
2023-01-30T05:54:25.061Z,1.80
2023-01-30T05:56:51.693Z,2.03
2023-01-30T05:59:20.687Z,1.88
2023-01-30T06:01:48.187Z,2.10
2023-01-30T06:04:14.546Z,2.40
2023-01-30T06:06:40.915Z,2.63
2023-01-30T06:09:07.299Z,2.03
2023-01-30T06:11:33.680Z,2.00
2023-01-30T06:14:00.095Z,2.10
2023-01-30T06:16:26.619Z,2.33
2023-01-30T06:18:53.061Z,2.17
2023-01-30T06:21:19.455Z,2.03
2023-01-30T06:23:46.350Z,2.38
2023-01-30T06:26:12.917Z,2.17
2023-01-30T06:28:39.410Z,2.13
2023-01-30T06:31:07.959Z,2.38
2023-01-30T06:33:34.765Z,3.10
2023-01-30T06:36:01.274Z,2.58
2023-01-30T06:38:27.622Z,2.20
2023-01-30T06:40:53.964Z,2.22
2023-01-30T06:43:20.338Z,2.63
2023-01-30T06:45:46.853Z,2.42
2023-01-30T06:48:13.250Z,2.42
2023-01-30T06:50:39.735Z,1.80
2023-01-30T06:53:08.375Z,2.30
2023-01-30T06:55:35.725Z,3.30
2023-01-30T06:58:04.425Z,1.85
2023-01-30T07:00:31.312Z,2.00
2023-01-30T07:02:57.998Z,2.37
2023-01-30T07:05:24.891Z,2.05
2023-01-30T07:07:51.443Z,2.72
2023-01-30T07:10:18.255Z,2.10
2023-01-30T07:12:46.460Z,2.45
2023-01-30T07:15:12.988Z,2.17
2023-01-30T07:17:42.773Z,2.22
2023-01-30T07:20:10.324Z,1.88
2023-01-30T07:22:36.813Z,2.20
2023-01-30T07:25:03.785Z,2.53
2023-01-30T07:27:30.216Z,1.70
2023-01-30T07:29:56.586Z,2.10
2023-01-30T07:32:22.978Z,1.85
2023-01-30T07:34:49.391Z,1.50
2023-01-30T07:37:15.856Z,2.15
2023-01-30T07:39:42.335Z,1.77
2023-01-30T07:42:08.864Z,2.28
2023-01-30T07:44:35.299Z,1.90
2023-01-30T07:47:01.836Z,2.10
2023-01-30T07:49:28.430Z,2.20
2023-01-30T07:51:54.835Z,1.93
2023-01-30T07:54:21.201Z,2.15
2023-01-30T07:56:47.592Z,2.03
2023-01-30T07:59:13.998Z,2.45
2023-01-30T08:01:40.380Z,1.77
2023-01-30T08:04:06.836Z,2.30
2023-01-30T08:06:38.743Z,2.30
2023-01-30T08:09:06.713Z,2.80
2023-01-30T08:11:33.951Z,1.70
2023-01-30T08:14:00.371Z,1.98
2023-01-30T08:16:26.864Z,2.23
2023-01-30T08:18:53.304Z,1.73
2023-01-30T08:21:19.668Z,2.25
2023-01-30T08:23:46.192Z,2.20
2023-01-30T08:26:12.733Z,1.85
2023-01-30T08:28:39.349Z,2.13
2023-01-30T08:31:09.976Z,2.60
2023-01-30T08:33:36.535Z,2.30
2023-01-30T08:36:02.907Z,2.33
2023-01-30T08:38:29.346Z,1.55
2023-01-30T08:40:57.910Z,2.33
2023-01-30T08:43:24.415Z,2.55
2023-01-30T08:45:53.709Z,2.67
2023-01-30T08:48:20.066Z,2.90
2023-01-30T08:50:46.456Z,2.00
2023-01-30T08:53:12.844Z,2.13
2023-01-30T08:55:39.222Z,2.28
2023-01-30T08:58:05.593Z,2.13
2023-01-30T09:00:31.995Z,2.30
2023-01-30T09:02:58.613Z,2.25
2023-01-30T09:05:25.229Z,2.13
2023-01-30T09:07:51.688Z,2.10
2023-01-30T09:10:19.223Z,1.83
2023-01-30T09:12:46.523Z,2.30
2023-01-30T09:15:13.273Z,2.45
2023-01-30T09:17:39.739Z,2.23
2023-01-30T09:20:07.818Z,2.22
2023-01-30T09:22:34.261Z,2.53
2023-01-30T09:25:00.831Z,2.63
2023-01-30T09:27:27.385Z,2.00
2023-01-30T09:29:53.756Z,2.60
2023-01-30T09:32:20.203Z,2.40
2023-01-30T09:34:46.578Z,1.85
2023-01-30T09:37:12.975Z,2.50
2023-01-30T09:39:39.442Z,2.33
2023-01-30T09:42:05.808Z,2.30
2023-01-30T09:44:53.882Z,2.72
2023-01-30T09:47:36.195Z,1.63
2023-01-30T09:50:30.451Z,1.90
2023-01-30T09:53:03.288Z,1.77
2023-01-30T09:55:32.566Z,2.30
2023-01-30T09:58:00.536Z,2.53
2023-01-30T10:00:44.099Z,2.53
2023-01-30T10:03:33.529Z,2.83
2023-01-30T10:06:10.688Z,2.17
2023-01-30T10:08:50.078Z,1.97
2023-01-30T10:11:32.940Z,2.03
2023-01-30T10:14:20.477Z,1.88
2023-01-30T10:17:01.849Z,1.90
2023-01-30T10:19:53.332Z,2.00
2023-01-30T10:22:26.313Z,2.80
2023-01-30T10:24:53.824Z,2.05
2023-01-30T10:27:21.997Z,2.05
2023-01-30T10:29:56.505Z,2.00
2023-01-30T10:32:31.594Z,2.05
2023-01-30T10:35:05.068Z,2.20
2023-01-30T10:37:41.560Z,1.92
2023-01-30T10:40:22.232Z,2.47
2023-01-30T10:42:52.330Z,2.35
2023-01-30T10:45:23.231Z,2.67
2023-01-30T10:48:31.401Z,2.27
2023-01-30T10:51:30.460Z,1.40
2023-01-30T10:54:13.691Z,1.30
2023-01-30T10:56:47.406Z,1.10
2023-01-30T10:59:51.305Z,0.98
2023-01-30T11:02:44.820Z,0.50
2023-01-30T11:05:27.670Z,0.50
2023-01-30T11:07:54.070Z,0.30
2023-01-30T11:10:24.102Z,0.30
2023-01-30T11:12:55.671Z,0.50
2023-01-30T11:15:24.857Z,0.50
2023-01-30T11:18:27.179Z,0.50
2023-01-30T11:21:09.517Z,0.50
2023-01-30T11:23:41.951Z,0.80
2023-01-30T11:26:19.522Z,1.10
2023-01-30T11:28:48.503Z,1.00
2023-01-30T11:31:38.918Z,1.27
2023-01-30T11:34:15.154Z,1.00
2023-01-30T11:36:42.096Z,1.08
2023-01-30T11:39:15.732Z,1.42
2023-01-30T11:41:55.286Z,1.73
2023-01-30T11:44:30.374Z,1.40
2023-01-30T11:47:16.976Z,1.77
2023-01-30T11:49:53.071Z,1.33
2023-01-30T11:52:38.166Z,1.75
2023-01-30T11:55:10.235Z,1.50
2023-01-30T11:57:47.194Z,1.02
2023-01-30T12:00:19.326Z,1.35
2023-01-30T12:02:48.207Z,1.27
2023-01-30T12:05:26.687Z,1.38
2023-01-30T12:07:53.144Z,1.57
2023-01-30T12:10:30.770Z,0.90
2023-01-30T12:13:02.227Z,1.35
2023-01-30T12:15:33.776Z,1.15
2023-01-30T12:18:09.208Z,0.98
2023-01-30T12:20:54.434Z,1.73
2023-01-30T12:23:48.878Z,1.63
2023-01-30T12:26:30.851Z,1.20
2023-01-30T12:29:29.079Z,2.20
2023-01-30T12:32:31.082Z,2.08
2023-01-30T12:34:57.548Z,1.60
2023-01-30T12:37:23.846Z,1.60
2023-01-30T12:40:03.931Z,1.13
2023-01-30T12:42:33.051Z,1.58
2023-01-30T12:45:13.982Z,1.90
2023-01-30T12:48:05.138Z,2.03
2023-01-30T12:50:48.090Z,1.52
2023-01-30T12:53:38.917Z,1.88
2023-01-30T12:56:24.136Z,1.88
2023-01-30T12:58:56.589Z,1.67
2023-01-30T13:01:33.400Z,2.17
2023-01-30T13:04:35.715Z,2.38
2023-01-30T13:07:16.236Z,2.20
2023-01-30T13:09:42.588Z,2.28
2023-01-30T13:12:23.554Z,2.17
2023-01-30T13:15:03.331Z,2.40
2023-01-30T13:17:29.637Z,2.05
2023-01-30T13:20:08.505Z,2.17
2023-01-30T13:22:43.928Z,2.13
2023-01-30T13:25:42.650Z,2.03
2023-01-30T13:28:16.870Z,2.37
2023-01-30T13:30:45.426Z,2.25
2023-01-30T13:33:27.154Z,1.70
2023-01-30T13:36:07.064Z,1.80
2023-01-30T13:38:38.643Z,1.80
2023-01-30T13:41:05.805Z,1.80
2023-01-30T13:43:38.407Z,2.05
2023-01-30T13:46:09.865Z,2.60
2023-01-30T13:49:15.438Z,1.83
2023-01-30T13:51:47.336Z,2.15
2023-01-30T13:54:39.464Z,2.07
2023-01-30T13:57:30.665Z,2.55
2023-01-30T14:00:24.672Z,2.58
2023-01-30T14:03:03.102Z,1.98
2023-01-30T14:05:54.484Z,2.35
2023-01-30T14:08:25.352Z,3.00
2023-01-30T14:10:52.624Z,2.42
2023-01-30T14:13:19.092Z,2.15
2023-01-30T14:15:56.518Z,2.33
2023-01-30T14:18:27.012Z,2.50
2023-01-30T14:21:25.747Z,2.67
2023-01-30T14:23:58.292Z,2.67
2023-01-30T14:26:53.256Z,3.80
2023-01-30T14:29:37.977Z,2.70
2023-01-30T14:32:19.111Z,3.05
2023-01-30T14:34:50.104Z,3.20
2023-01-30T14:37:42.988Z,3.03
2023-01-30T14:40:21.703Z,2.75
2023-01-30T14:43:13.172Z,2.65
2023-01-30T14:45:49.410Z,2.70
2023-01-30T14:48:34.864Z,2.70
2023-01-30T14:51:29.004Z,2.60
2023-01-30T14:53:59.938Z,2.67
2023-01-30T14:56:54.159Z,3.20
2023-01-30T14:59:20.448Z,2.67
2023-01-30T15:01:58.556Z,2.40
2023-01-30T15:04:29.747Z,2.47
2023-01-30T15:06:59.053Z,2.97
2023-01-30T15:09:28.755Z,2.83
2023-01-30T15:12:27.651Z,3.17
2023-01-30T15:15:19.318Z,2.33
2023-01-30T15:18:07.821Z,3.10
2023-01-30T15:21:00.558Z,3.08
2023-01-30T15:24:04.819Z,3.40
2023-01-30T15:26:56.236Z,2.75
2023-01-30T15:29:32.879Z,2.47
2023-01-30T15:32:01.956Z,1.45
2023-01-30T15:34:30.945Z,1.65
2023-01-30T15:36:58.188Z,1.40
2023-01-30T15:39:27.378Z,1.60
2023-01-30T15:42:00.963Z,1.80
2023-01-30T15:44:49.707Z,1.60
2023-01-30T15:47:55.098Z,1.58
2023-01-30T15:50:21.580Z,1.55
2023-01-30T15:52:51.009Z,1.98
2023-01-30T15:55:24.438Z,2.23
2023-01-30T15:57:57.387Z,2.08
2023-01-30T16:00:44.851Z,1.67
2023-01-30T16:03:15.431Z,1.83
2023-01-30T16:06:20.676Z,1.95
2023-01-30T16:09:03.881Z,2.10
2023-01-30T16:11:39.502Z,2.20
2023-01-30T16:14:10.784Z,1.60
2023-01-30T16:16:49.791Z,2.20
2023-01-30T16:19:37.411Z,1.95
2023-01-30T16:22:06.995Z,1.77
2023-01-30T16:24:36.618Z,1.88
2023-01-30T16:27:07.156Z,1.63
2023-01-30T16:29:46.127Z,2.20
2023-01-30T16:32:14.669Z,2.20
2023-01-30T16:34:41.235Z,2.73
2023-01-30T16:37:26.172Z,2.13
2023-01-30T16:40:48.603Z,2.22
2023-01-30T16:43:17.799Z,2.13
2023-01-30T16:45:53.164Z,2.25
2023-01-30T16:48:19.682Z,2.63
2023-01-30T16:50:48.594Z,2.63
2023-01-30T16:53:22.381Z,2.78
2023-01-30T16:56:09.861Z,2.10
2023-01-30T16:58:38.319Z,2.50
2023-01-30T17:01:07.546Z,2.60
2023-01-30T17:03:37.378Z,2.88
2023-01-30T17:06:12.621Z,2.33
2023-01-30T17:08:53.998Z,2.70
2023-01-30T17:11:42.316Z,2.38
2023-01-30T17:14:14.760Z,2.77
2023-01-30T17:16:42.979Z,2.50
2023-01-30T17:19:09.405Z,2.63
2023-01-30T17:21:57.018Z,2.88
2023-01-30T17:24:24.749Z,2.42
2023-01-30T17:26:59.052Z,2.77
2023-01-30T17:29:43.428Z,3.13
2023-01-30T17:32:13.718Z,3.40
2023-01-30T17:34:41.121Z,2.72
2023-01-30T17:37:14.415Z,2.20
2023-01-30T17:39:40.798Z,2.80
2023-01-30T17:42:11.786Z,2.88
2023-01-30T17:44:38.336Z,2.70
2023-01-30T17:47:05.036Z,3.13
2023-01-30T17:49:31.454Z,3.28
2023-01-30T17:52:00.019Z,3.13
2023-01-30T17:54:26.863Z,3.03
2023-01-30T17:56:59.316Z,2.97
2023-01-30T17:59:25.890Z,2.35
2023-01-30T18:01:52.716Z,2.60
2023-01-30T18:04:20.093Z,2.30
2023-01-30T18:06:49.908Z,2.25
2023-01-30T18:09:23.964Z,2.53
2023-01-30T18:11:51.253Z,2.60
2023-01-30T18:14:18.022Z,2.22
2023-01-30T18:16:44.875Z,3.87
2023-01-30T18:19:13.681Z,2.33
2023-01-30T18:21:42.728Z,3.35
2023-01-30T18:24:09.230Z,2.53
2023-01-30T18:26:35.638Z,2.88
2023-01-30T18:29:02.175Z,2.33
2023-01-30T18:31:30.013Z,2.72
2023-01-30T18:33:56.453Z,2.80
2023-01-30T18:36:23.656Z,2.85
2023-01-30T18:38:50.355Z,2.30
2023-01-30T18:41:23.103Z,2.47
2023-01-30T18:43:57.175Z,2.35
2023-01-30T18:46:24.233Z,3.20
2023-01-30T18:48:50.806Z,2.85
2023-01-30T18:51:20.718Z,3.05
2023-01-30T18:53:48.706Z,2.77
2023-01-30T18:56:17.979Z,2.53
2023-01-30T18:58:49.679Z,2.38
2023-01-30T19:01:22.958Z,2.40
2023-01-30T19:03:49.581Z,3.00
2023-01-30T19:06:18.250Z,1.87
2023-01-30T19:08:45.331Z,2.13
2023-01-30T19:11:33.244Z,2.45
2023-01-30T19:14:00.624Z,2.00
2023-01-30T19:16:29.099Z,2.20
2023-01-30T19:18:56.335Z,2.90
2023-01-30T19:21:23.742Z,2.75
2023-01-30T19:23:50.644Z,2.72
2023-01-30T19:26:18.269Z,2.45
2023-01-30T19:28:45.309Z,2.80
2023-01-30T19:31:14.189Z,2.30
2023-01-30T19:33:44.720Z,2.65
2023-01-30T19:36:13.481Z,2.97
2023-01-30T19:38:40.529Z,2.80
2023-01-30T19:41:19.166Z,3.25
2023-01-30T19:43:46.037Z,2.73
2023-01-30T19:46:13.323Z,2.05
2023-01-30T19:48:40.237Z,2.33
2023-01-30T19:51:13.833Z,2.00
2023-01-30T19:53:42.593Z,2.38
2023-01-30T19:56:10.612Z,2.47
2023-01-30T19:58:38.117Z,1.80
2023-01-30T20:01:05.836Z,1.90
2023-01-30T20:03:32.235Z,2.38
2023-01-30T20:06:14.582Z,2.40
2023-01-30T20:08:42.679Z,2.27
2023-01-30T20:11:11.733Z,2.72
2023-01-30T20:13:40.401Z,2.35
2023-01-30T20:16:08.353Z,2.45
2023-01-30T20:18:37.331Z,2.17
2023-01-30T20:21:09.287Z,2.10
2023-01-30T20:23:36.432Z,1.80
2023-01-30T20:26:07.697Z,1.80
2023-01-30T20:28:34.740Z,2.22
2023-01-30T20:31:06.461Z,2.17
2023-01-30T20:33:32.890Z,2.00
2023-01-30T20:36:04.457Z,2.63
2023-01-30T20:38:32.569Z,2.97
2023-01-30T20:41:09.323Z,1.98
2023-01-30T20:43:37.555Z,2.28
2023-01-30T20:46:11.102Z,2.20
2023-01-30T20:48:38.913Z,2.17
2023-01-30T20:51:07.961Z,2.25
2023-01-30T20:53:35.313Z,1.63
2023-01-30T20:56:02.692Z,2.22
2023-01-30T20:58:30.026Z,1.90
2023-01-30T21:00:56.995Z,2.15
2023-01-30T21:03:25.215Z,2.13
2023-01-30T21:05:59.267Z,1.85
2023-01-30T21:08:26.605Z,2.95
2023-01-30T21:10:54.531Z,2.37
2023-01-30T21:13:21.717Z,2.65
2023-01-30T21:15:48.531Z,2.08
2023-01-30T21:18:14.898Z,2.30
2023-01-30T21:20:48.571Z,2.67
2023-01-30T21:23:15.387Z,2.43
2023-01-30T21:25:41.797Z,2.35
2023-01-30T21:28:08.217Z,2.25
2023-01-30T21:30:36.102Z,2.45
2023-01-30T21:33:02.521Z,2.70
2023-01-30T21:35:28.951Z,2.83
2023-01-30T21:38:14.099Z,2.00
2023-01-30T21:40:58.853Z,2.20
2023-01-30T21:43:25.231Z,1.90
2023-01-30T21:45:58.017Z,2.42
2023-01-30T21:48:24.412Z,2.40
2023-01-30T21:50:50.782Z,2.50
2023-01-30T21:53:17.141Z,2.00
2023-01-30T21:55:43.571Z,2.13
2023-01-30T21:58:09.903Z,3.03
2023-01-30T22:00:36.785Z,2.13
2023-01-30T22:03:03.290Z,2.25
2023-01-30T22:05:36.535Z,2.00
2023-01-30T22:08:03.782Z,2.50
2023-01-30T22:10:30.436Z,2.33
2023-01-30T22:12:56.792Z,1.97
2023-01-30T22:15:23.159Z,1.77
2023-01-30T22:17:49.758Z,1.60
2023-01-30T22:20:16.399Z,1.60
2023-01-30T22:22:42.811Z,1.67
2023-01-30T22:25:09.535Z,1.40
2023-01-30T22:27:36.184Z,2.03
2023-01-30T22:30:02.638Z,2.38
2023-01-30T22:32:29.048Z,1.70
2023-01-30T22:34:55.421Z,1.42
2023-01-30T22:37:21.776Z,2.47
2023-01-30T22:39:48.319Z,2.03
2023-01-30T22:42:14.826Z,2.72
2023-01-30T22:44:41.812Z,1.77
2023-01-30T22:47:08.352Z,2.60
2023-01-30T22:49:34.764Z,2.60
2023-01-30T22:52:01.715Z,1.95
2023-01-30T22:54:28.365Z,2.20
2023-01-30T22:56:54.743Z,2.10
2023-01-30T22:59:21.780Z,1.92
2023-01-30T23:01:50.928Z,2.20
2023-01-30T23:04:22.407Z,1.90
2023-01-30T23:06:49.507Z,1.70
2023-01-30T23:09:19.865Z,2.05
2023-01-30T23:12:14.095Z,2.10
2023-01-30T23:14:42.683Z,2.10
2023-01-30T23:17:28.243Z,1.92
2023-01-30T23:19:55.620Z,2.00
2023-01-30T23:22:22.712Z,1.77
2023-01-30T23:24:51.017Z,1.90
2023-01-30T23:27:17.572Z,2.53
2023-01-30T23:29:44.322Z,1.90
2023-01-30T23:32:10.828Z,2.00
2023-01-30T23:34:37.699Z,2.72
2023-01-30T23:37:04.280Z,2.55
2023-01-30T23:39:30.668Z,1.80
2023-01-30T23:41:57.045Z,2.30
2023-01-30T23:44:23.580Z,3.00
2023-01-30T23:46:49.981Z,2.63
2023-01-30T23:49:16.401Z,2.08
2023-01-30T23:51:44.503Z,2.00
2023-01-30T23:54:12.384Z,2.35
2023-01-30T23:56:41.702Z,2.30
2023-01-30T23:59:08.785Z,1.95
